createdAt,value
2016-11-29T00:00:11.262Z,88.56
2016-11-29T00:01:11.241Z,88.56
2016-11-29T00:02:11.224Z,89.22
2016-11-29T00:03:11.208Z,88.75
2016-11-29T00:04:11.191Z,89.12
2016-11-29T00:05:11.175Z,88.84
2016-11-29T00:06:11.158Z,88.65
2016-11-29T00:07:11.145Z,88.93
2016-11-29T00:08:11.124Z,88.75
2016-11-29T00:09:11.103Z,88.75
2016-11-29T00:10:11.086Z,88.84
2016-11-29T00:11:11.075Z,89.03
2016-11-29T00:12:11.054Z,89.03
2016-11-29T00:13:11.037Z,88.93
2016-11-29T00:14:11.024Z,88.75
2016-11-29T00:15:11.008Z,89.22
2016-11-29T00:16:10.985Z,89.03
2016-11-29T00:17:10.966Z,89.31
2016-11-29T00:18:11.254Z,89.4
2016-11-29T00:19:10.934Z,89.03
2016-11-29T00:20:10.915Z,89.03
2016-11-29T00:21:10.900Z,89.31
2016-11-29T00:22:10.890Z,89.12
2016-11-29T00:23:10.867Z,88.75
2016-11-29T00:24:10.852Z,89.03
2016-11-29T00:25:10.853Z,88.75
2016-11-29T00:26:10.816Z,88.84
2016-11-29T00:27:10.796Z,88.84
2016-11-29T00:28:10.781Z,88.65
2016-11-29T00:29:10.765Z,88.65
2016-11-29T00:30:10.749Z,88.93
2016-11-29T00:31:10.731Z,88.75
2016-11-29T00:32:10.718Z,88.93
2016-11-29T00:33:10.698Z,89.03
2016-11-29T00:34:10.681Z,88.84
2016-11-29T00:35:10.661Z,89.31
2016-11-29T00:36:10.647Z,89.4
2016-11-29T00:37:10.632Z,89.31
2016-11-29T00:38:10.610Z,89.31
2016-11-29T00:39:10.596Z,88.75
2016-11-29T00:40:10.574Z,89.4
2016-11-29T00:41:10.559Z,89.22
2016-11-29T00:42:10.543Z,89.22
2016-11-29T00:43:10.524Z,89.12
2016-11-29T00:44:10.506Z,89.22
2016-11-29T00:45:10.491Z,89.4
2016-11-29T00:46:10.473Z,89.5
2016-11-29T00:47:10.456Z,89.22
2016-11-29T00:48:10.439Z,89.03
2016-11-29T00:49:10.424Z,89.4
2016-11-29T00:50:10.408Z,89.4
2016-11-29T00:51:10.386Z,89.12
2016-11-29T00:52:10.369Z,89.4
2016-11-29T00:53:10.351Z,89.4
2016-11-29T00:54:10.338Z,89.69
2016-11-29T00:55:10.321Z,89.69
2016-11-29T00:56:10.303Z,89.5
2016-11-29T00:57:10.282Z,89.59
2016-11-29T00:58:10.268Z,89.22
2016-11-29T00:59:10.249Z,88.93
2016-11-29T01:00:10.231Z,89.69
2016-11-29T01:01:10.216Z,89.59
2016-11-29T01:02:10.198Z,89.5
2016-11-29T01:03:10.182Z,89.31
2016-11-29T01:04:10.170Z,89.69
2016-11-29T01:05:10.147Z,90.07
2016-11-29T01:06:10.131Z,89.78
2016-11-29T01:07:10.111Z,90.16
2016-11-29T01:08:10.096Z,90.07
2016-11-29T01:09:10.077Z,90.07
2016-11-29T01:10:10.060Z,90.07
2016-11-29T01:11:10.041Z,90.07
2016-11-29T01:12:10.025Z,89.78
2016-11-29T01:13:10.006Z,89.78
2016-11-29T01:14:09.991Z,89.59
2016-11-29T01:15:09.971Z,89.97
2016-11-29T01:16:09.954Z,89.78
2016-11-29T01:17:09.934Z,89.88
2016-11-29T01:18:09.924Z,89.78
2016-11-29T01:19:09.905Z,89.69
2016-11-29T01:20:10.189Z,89.5
2016-11-29T01:21:09.887Z,89.5
2016-11-29T01:22:09.848Z,89.31
2016-11-29T01:23:09.829Z,89.69
2016-11-29T01:24:09.820Z,89.59
2016-11-29T01:25:09.799Z,89.69
2016-11-29T01:26:09.779Z,89.59
2016-11-29T01:27:09.763Z,89.4
2016-11-29T01:28:09.749Z,89.69
2016-11-29T01:29:09.730Z,89.59
2016-11-29T01:30:09.709Z,89.69
2016-11-29T01:31:09.697Z,89.59
2016-11-29T01:32:09.677Z,90.07
2016-11-29T01:33:09.661Z,89.97
2016-11-29T01:34:09.645Z,89.59
2016-11-29T01:35:09.925Z,89.97
2016-11-29T01:36:09.609Z,90.07
2016-11-29T01:37:09.595Z,90.07
2016-11-29T01:38:09.574Z,89.69
2016-11-29T01:39:09.553Z,89.97
2016-11-29T01:40:09.535Z,89.69
2016-11-29T01:41:09.522Z,89.88
2016-11-29T01:42:09.503Z,90.26
2016-11-29T01:43:09.786Z,90.26
2016-11-29T01:44:09.469Z,90.26
2016-11-29T01:45:09.454Z,90.07
2016-11-29T01:46:09.435Z,90.16
2016-11-29T01:47:09.415Z,90.26
2016-11-29T01:48:09.397Z,90.07
2016-11-29T01:49:09.383Z,90.07
2016-11-29T01:50:09.367Z,90.16
2016-11-29T01:51:09.344Z,90.35
2016-11-29T01:52:09.337Z,90.54
2016-11-29T01:53:09.314Z,90.35
2016-11-29T01:54:09.292Z,90.73
2016-11-29T01:55:09.275Z,90.54
2016-11-29T01:56:09.254Z,90.45
2016-11-29T01:57:09.241Z,90.45
2016-11-29T01:58:09.226Z,90.35
2016-11-29T01:59:09.205Z,90.54
2016-11-29T02:00:09.186Z,90.45
2016-11-29T02:01:09.168Z,90.45
2016-11-29T02:02:09.153Z,90.54
2016-11-29T02:03:09.138Z,90.54
2016-11-29T02:04:09.120Z,90.16
2016-11-29T02:05:09.104Z,90.54
2016-11-29T02:06:09.084Z,90.45
2016-11-29T02:07:09.067Z,90.73
2016-11-29T02:08:09.049Z,90.35
2016-11-29T02:09:09.033Z,90.45
2016-11-29T02:10:09.018Z,90.26
2016-11-29T02:11:08.998Z,90.45
2016-11-29T02:12:08.977Z,90.54
2016-11-29T02:13:08.963Z,90.54
2016-11-29T02:14:08.948Z,90.73
2016-11-29T02:15:08.931Z,90.35
2016-11-29T02:16:08.945Z,90.54
2016-11-29T02:17:08.896Z,90.54
2016-11-29T02:18:08.875Z,90.26
2016-11-29T02:19:08.857Z,90.35
2016-11-29T02:20:08.841Z,90.54
2016-11-29T02:21:08.824Z,90.45
2016-11-29T02:22:08.811Z,90.54
2016-11-29T02:23:08.786Z,90.45
2016-11-29T02:24:08.770Z,90.54
2016-11-29T02:25:08.752Z,90.35
2016-11-29T02:26:08.735Z,90.64
2016-11-29T02:27:08.725Z,90.64
2016-11-29T02:28:08.698Z,90.64
2016-11-29T02:29:08.687Z,90.45
2016-11-29T02:30:08.664Z,90.35
2016-11-29T02:31:08.650Z,90.35
2016-11-29T02:32:08.630Z,90.16
2016-11-29T02:33:08.609Z,90.73
2016-11-29T02:34:08.594Z,90.26
2016-11-29T02:35:08.578Z,91.39
2016-11-29T02:36:08.865Z,90.26
2016-11-29T02:37:08.542Z,90.26
2016-11-29T02:38:08.523Z,90.26
2016-11-29T02:39:08.506Z,90.54
2016-11-29T02:40:08.490Z,90.35
2016-11-29T02:41:08.476Z,90.26
2016-11-29T02:42:08.457Z,90.45
2016-11-29T02:43:08.435Z,90.54
2016-11-29T02:44:08.427Z,91.2
2016-11-29T02:45:08.400Z,90.45
2016-11-29T02:46:08.380Z,90.73
2016-11-29T02:47:08.367Z,90.64
2016-11-29T02:48:08.347Z,90.73
2016-11-29T02:49:08.334Z,90.4
2016-11-29T02:50:08.319Z,90.64
2016-11-29T02:51:08.298Z,90.35
2016-11-29T02:52:08.275Z,90.21
2016-11-29T02:53:08.264Z,90.26
2016-11-29T02:54:08.239Z,90.07
2016-11-29T02:55:08.225Z,90.35
2016-11-29T02:56:08.205Z,90.45
2016-11-29T02:57:08.189Z,91.3
2016-11-29T02:58:08.168Z,90.92
2016-11-29T02:59:08.153Z,90.82
2016-11-29T03:00:08.138Z,90.82
2016-11-29T03:01:08.120Z,91.3
2016-11-29T03:02:08.103Z,90.92
2016-11-29T03:03:08.086Z,90.82
2016-11-29T03:04:08.064Z,90.92
2016-11-29T03:05:08.051Z,91.11
2016-11-29T03:06:08.029Z,90.92
2016-11-29T03:07:08.015Z,90.82
2016-11-29T03:08:07.994Z,91.01
2016-11-29T03:09:07.977Z,90.92
2016-11-29T03:10:07.987Z,90.73
2016-11-29T03:11:07.941Z,91.49
2016-11-29T03:12:07.925Z,90.92
2016-11-29T03:13:07.909Z,90.92
2016-11-29T03:14:07.890Z,90.54
2016-11-29T03:15:07.878Z,90.73
2016-11-29T03:16:07.859Z,90.26
2016-11-29T03:17:07.838Z,90.26
2016-11-29T03:18:07.818Z,89.97
2016-11-29T03:19:07.799Z,90.35
2016-11-29T03:20:07.787Z,90.26
2016-11-29T03:21:07.771Z,90.54
2016-11-29T03:22:07.751Z,90.54
2016-11-29T03:23:07.734Z,90.45
2016-11-29T03:24:07.714Z,90.54
2016-11-29T03:25:07.696Z,90.35
2016-11-29T03:26:07.678Z,90.35
2016-11-29T03:27:07.668Z,90.35
2016-11-29T03:28:07.646Z,90.35
2016-11-29T03:29:07.623Z,90.45
2016-11-29T03:30:07.613Z,90.73
2016-11-29T03:31:07.595Z,90.54
2016-11-29T03:32:07.574Z,90.54
2016-11-29T03:33:07.557Z,90.35
2016-11-29T03:34:07.539Z,90.26
2016-11-29T03:35:07.523Z,90.45
2016-11-29T03:36:07.504Z,90.07
2016-11-29T03:37:07.485Z,90.54
2016-11-29T03:38:07.466Z,90.45
2016-11-29T03:39:07.449Z,90.35
2016-11-29T03:40:07.435Z,90.26
2016-11-29T03:41:07.417Z,90.26
2016-11-29T03:42:07.397Z,90.5
2016-11-29T03:43:07.384Z,90.45
2016-11-29T03:44:07.365Z,90.64
2016-11-29T03:45:07.347Z,90.26
2016-11-29T03:46:07.331Z,90.16
2016-11-29T03:47:07.310Z,90.4
2016-11-29T03:48:07.294Z,90.45
2016-11-29T03:49:07.277Z,90.26
2016-11-29T03:50:07.259Z,90.45
2016-11-29T03:51:07.239Z,90.45
2016-11-29T03:52:07.229Z,90.64
2016-11-29T03:53:07.205Z,89.93
2016-11-29T03:54:07.187Z,90.26
2016-11-29T03:55:07.178Z,90.45
2016-11-29T03:56:07.155Z,90.4
2016-11-29T03:57:07.137Z,90.59
2016-11-29T03:58:07.121Z,89.74
2016-11-29T03:59:07.099Z,90.02
2016-11-29T04:00:07.083Z,89.97
2016-11-29T04:01:07.064Z,90.21
2016-11-29T04:02:07.046Z,90.5
2016-11-29T04:03:07.026Z,89.93
2016-11-29T04:04:07.015Z,89.83
2016-11-29T04:05:06.996Z,90.21
2016-11-29T04:06:06.977Z,89.78
2016-11-29T04:07:06.959Z,90.02
2016-11-29T04:08:06.941Z,90.21
2016-11-29T04:09:07.231Z,90.21
2016-11-29T04:10:06.905Z,90.02
2016-11-29T04:11:06.891Z,90.21
2016-11-29T04:12:06.870Z,90.02
2016-11-29T04:13:06.856Z,90.02
2016-11-29T04:14:06.840Z,90.12
2016-11-29T04:15:06.821Z,90.12
2016-11-29T04:16:06.801Z,89.93
2016-11-29T04:17:06.785Z,89.74
2016-11-29T04:18:06.767Z,89.74
2016-11-29T04:19:06.749Z,90.02
2016-11-29T04:20:06.736Z,90.21
2016-11-29T04:21:06.714Z,89.97
2016-11-29T04:22:06.699Z,90.02
2016-11-29T04:23:06.681Z,90.12
2016-11-29T04:24:06.666Z,89.83
2016-11-29T04:25:06.647Z,90.21
2016-11-29T04:26:06.629Z,89.93
2016-11-29T04:27:06.611Z,90.02
2016-11-29T04:28:06.595Z,89.83
2016-11-29T04:29:06.577Z,90.5
2016-11-29T04:30:06.559Z,90.4
2016-11-29T04:31:06.543Z,90.4
2016-11-29T04:32:06.526Z,90.5
2016-11-29T04:33:06.505Z,90.59
2016-11-29T04:34:06.490Z,90.12
2016-11-29T04:35:06.470Z,90.31
2016-11-29T04:36:06.454Z,90.12
2016-11-29T04:37:06.434Z,90.12
2016-11-29T04:38:06.417Z,90.31
2016-11-29T04:39:06.403Z,90.12
2016-11-29T04:40:06.382Z,89.83
2016-11-29T04:41:06.366Z,90.4
2016-11-29T04:42:06.379Z,90.31
2016-11-29T04:43:06.332Z,90.21
2016-11-29T04:44:06.312Z,90.31
2016-11-29T04:45:06.297Z,90.59
2016-11-29T04:46:06.278Z,90.87
2016-11-29T04:47:06.263Z,90.4
2016-11-29T04:48:06.246Z,90.4
2016-11-29T04:49:06.224Z,90.4
2016-11-29T04:50:06.236Z,90.02
2016-11-29T04:51:06.193Z,90.31
2016-11-29T04:52:06.173Z,90.21
2016-11-29T04:53:06.154Z,90.21
2016-11-29T04:54:06.139Z,90.5
2016-11-29T04:55:06.119Z,90.5
2016-11-29T04:56:06.100Z,90.4
2016-11-29T04:57:06.085Z,90.4
2016-11-29T04:58:06.066Z,90.21
2016-11-29T04:59:06.049Z,90.31
2016-11-29T05:00:06.034Z,90.5
2016-11-29T05:01:06.014Z,90.4
2016-11-29T05:02:05.995Z,90.5
2016-11-29T05:03:05.976Z,90.59
2016-11-29T05:04:05.965Z,90.68
2016-11-29T05:05:05.947Z,90.68
2016-11-29T05:06:05.926Z,90.31
2016-11-29T05:07:05.906Z,90.21
2016-11-29T05:08:05.891Z,90.21
2016-11-29T05:09:05.870Z,90.31
2016-11-29T05:10:05.855Z,90.5
2016-11-29T05:11:05.836Z,90.31
2016-11-29T05:12:05.820Z,90.21
2016-11-29T05:13:05.801Z,90.68
2016-11-29T05:14:05.784Z,90.68
2016-11-29T05:15:05.769Z,90.97
2016-11-29T05:16:05.748Z,91.06
2016-11-29T05:17:05.731Z,90.92
2016-11-29T05:18:05.718Z,90.97
2016-11-29T05:19:05.702Z,90.97
2016-11-29T05:20:05.677Z,90.73
2016-11-29T05:21:05.661Z,90.92
2016-11-29T05:22:05.943Z,90.97
2016-11-29T05:23:05.628Z,91.01
2016-11-29T05:24:05.610Z,90.82
2016-11-29T05:25:05.592Z,91.01
2016-11-29T05:26:05.573Z,90.82
2016-11-29T05:27:05.563Z,90.73
2016-11-29T05:28:05.539Z,90.92
2016-11-29T05:29:05.519Z,90.26
2016-11-29T05:30:05.504Z,90.45
2016-11-29T05:31:05.787Z,90.73
2016-11-29T05:32:05.468Z,90.26
2016-11-29T05:33:05.450Z,90.54
2016-11-29T05:34:05.437Z,90.73
2016-11-29T05:35:05.414Z,90.64
2016-11-29T05:36:05.399Z,90.73
2016-11-29T05:37:05.381Z,90.45
2016-11-29T05:38:05.662Z,90.73
2016-11-29T05:39:05.372Z,90.26
2016-11-29T05:40:05.328Z,90.35
2016-11-29T05:41:05.311Z,90.45
2016-11-29T05:42:05.595Z,90.54
2016-11-29T05:43:05.272Z,90.54
2016-11-29T05:44:05.259Z,90.35
2016-11-29T05:45:05.235Z,90.35
2016-11-29T05:46:05.224Z,91.01
2016-11-29T05:47:05.201Z,90.54
2016-11-29T05:48:05.183Z,90.35
2016-11-29T05:49:05.166Z,90.64
2016-11-29T05:50:05.150Z,90.45
2016-11-29T05:51:05.130Z,90.35
2016-11-29T05:52:05.141Z,90.26
2016-11-29T05:53:05.096Z,90.26
2016-11-29T05:54:05.082Z,90.45
2016-11-29T05:55:05.063Z,90.73
2016-11-29T05:56:05.045Z,90.45
2016-11-29T05:57:05.029Z,90.54
2016-11-29T05:58:05.014Z,90.45
2016-11-29T05:59:04.995Z,90.07
2016-11-29T06:00:04.981Z,90.07
2016-11-29T06:01:04.964Z,90.07
2016-11-29T06:02:04.942Z,90.35
2016-11-29T06:03:04.922Z,89.88
2016-11-29T06:04:04.903Z,90.64
2016-11-29T06:05:04.888Z,90.54
2016-11-29T06:06:04.870Z,90.26
2016-11-29T06:07:04.855Z,90.54
2016-11-29T06:08:04.833Z,90.64
2016-11-29T06:09:04.817Z,90.54
2016-11-29T06:10:04.803Z,90.16
2016-11-29T06:11:04.784Z,90.26
2016-11-29T06:12:04.764Z,90.35
2016-11-29T06:13:04.749Z,90.54
2016-11-29T06:14:04.730Z,90.45
2016-11-29T06:15:04.712Z,90.26
2016-11-29T06:16:04.696Z,90.45
2016-11-29T06:17:04.683Z,90.54
2016-11-29T06:18:04.664Z,90.26
2016-11-29T06:19:04.639Z,90.54
2016-11-29T06:20:04.923Z,90.16
2016-11-29T06:21:04.636Z,89.88
2016-11-29T06:22:04.592Z,90.07
2016-11-29T06:23:04.570Z,89.88
2016-11-29T06:24:04.558Z,90.26
2016-11-29T06:25:04.543Z,90.26
2016-11-29T06:26:04.521Z,90.26
2016-11-29T06:27:04.500Z,90.26
2016-11-29T06:28:04.483Z,90.35
2016-11-29T06:29:04.469Z,89.88
2016-11-29T06:30:04.450Z,89.88
2016-11-29T06:31:04.432Z,89.88
2016-11-29T06:32:04.417Z,89.69
2016-11-29T06:33:04.403Z,90.16
2016-11-29T06:34:04.381Z,90.07
2016-11-29T06:35:04.391Z,90.07
2016-11-29T06:36:04.346Z,90.07
2016-11-29T06:37:04.328Z,90.64
2016-11-29T06:38:04.313Z,90.07
2016-11-29T06:39:04.292Z,89.78
2016-11-29T06:40:04.280Z,90.26
2016-11-29T06:41:04.256Z,90.07
2016-11-29T06:42:04.245Z,89.88
2016-11-29T06:43:04.224Z,90.54
2016-11-29T06:44:04.207Z,90.45
2016-11-29T06:45:04.192Z,90.35
2016-11-29T06:46:04.178Z,90.16
2016-11-29T06:47:04.153Z,89.88
2016-11-29T06:48:04.140Z,90.16
2016-11-29T06:49:04.123Z,89.88
2016-11-29T06:50:04.108Z,89.88
2016-11-29T06:51:04.085Z,90.35
2016-11-29T06:52:04.066Z,90.26
2016-11-29T06:53:04.052Z,90.07
2016-11-29T06:54:04.032Z,89.78
2016-11-29T06:55:04.019Z,90.35
2016-11-29T06:56:04.000Z,90.16
2016-11-29T06:57:03.981Z,90.07
2016-11-29T06:58:03.960Z,90.07
2016-11-29T06:59:03.947Z,89.97
2016-11-29T07:00:03.928Z,89.69
2016-11-29T07:01:03.909Z,89.69
2016-11-29T07:02:03.896Z,89.69
2016-11-29T07:03:03.881Z,89.69
2016-11-29T07:04:03.859Z,89.69
2016-11-29T07:05:03.845Z,89.78
2016-11-29T07:06:03.826Z,89.69
2016-11-29T07:07:03.808Z,89.69
2016-11-29T07:08:03.786Z,89.69
2016-11-29T07:09:03.772Z,89.88
2016-11-29T07:10:03.755Z,89.88
2016-11-29T07:11:03.737Z,90.07
2016-11-29T07:12:04.020Z,90.07
2016-11-29T07:13:03.702Z,89.59
2016-11-29T07:14:03.686Z,89.78
2016-11-29T07:15:03.672Z,89.69
2016-11-29T07:16:03.651Z,89.5
2016-11-29T07:17:03.663Z,89.59
2016-11-29T07:18:03.620Z,89.69
2016-11-29T07:19:03.602Z,90.07
2016-11-29T07:20:03.583Z,89.69
2016-11-29T07:21:03.569Z,90.26
2016-11-29T07:22:03.557Z,90.26
2016-11-29T07:23:03.531Z,89.78
2016-11-29T07:24:03.513Z,89.88
2016-11-29T07:25:03.496Z,89.78
2016-11-29T07:26:03.481Z,89.78
2016-11-29T07:27:03.462Z,90.16
2016-11-29T07:28:03.449Z,89.97
2016-11-29T07:29:03.429Z,90.07
2016-11-29T07:30:03.414Z,90.26
2016-11-29T07:31:03.395Z,89.22
2016-11-29T07:32:03.377Z,89.69
2016-11-29T07:33:03.361Z,89.31
2016-11-29T07:34:03.344Z,89.5
2016-11-29T07:35:03.325Z,89.5
2016-11-29T07:36:03.306Z,89.73
2016-11-29T07:37:03.291Z,89.26
2016-11-29T07:38:03.275Z,89.54
2016-11-29T07:39:03.256Z,89.17
2016-11-29T07:40:03.239Z,88.98
2016-11-29T07:41:03.224Z,88.7
2016-11-29T07:42:03.210Z,88.6
2016-11-29T07:43:03.494Z,89.07
2016-11-29T07:44:03.173Z,89.26
2016-11-29T07:45:03.189Z,88.32
2016-11-29T07:46:03.137Z,88.32
2016-11-29T07:47:03.121Z,88.42
2016-11-29T07:48:03.102Z,88.6
2016-11-29T07:49:03.085Z,88.23
2016-11-29T07:50:03.073Z,87.66
2016-11-29T07:51:03.056Z,87.85
2016-11-29T07:52:03.049Z,87.85
2016-11-29T07:53:03.019Z,87.09
2016-11-29T07:54:03.002Z,87.28
2016-11-29T07:55:02.990Z,87.28
2016-11-29T07:56:02.976Z,87.28
2016-11-29T07:57:02.959Z,87.56
2016-11-29T07:58:02.937Z,87.37
2016-11-29T07:59:02.921Z,86.43
2016-11-29T08:00:02.908Z,87.47
2016-11-29T08:01:02.888Z,86.99
2016-11-29T08:02:02.868Z,86.62
2016-11-29T08:03:02.888Z,86.9
2016-11-29T08:04:02.839Z,86.52
2016-11-29T08:05:02.821Z,86.9
2016-11-29T08:06:02.837Z,86.99
2016-11-29T08:07:02.794Z,86.43
2016-11-29T08:08:02.772Z,86.33
2016-11-29T08:09:02.758Z,86.24
2016-11-29T08:10:02.745Z,86.62
2016-11-29T08:11:02.723Z,86.8
2016-11-29T08:12:02.703Z,86.52
2016-11-29T08:13:02.691Z,86.05
2016-11-29T08:14:02.670Z,86.15
2016-11-29T08:15:02.660Z,85.86
2016-11-29T08:16:02.645Z,85.86
2016-11-29T08:17:02.623Z,86.05
2016-11-29T08:18:02.605Z,85.39
2016-11-29T08:19:02.593Z,85.68
2016-11-29T08:20:02.573Z,85.39
2016-11-29T08:21:02.562Z,85.39
2016-11-29T08:22:02.539Z,86.24
2016-11-29T08:23:02.528Z,85.2
2016-11-29T08:24:02.510Z,85.24
2016-11-29T08:25:02.496Z,85.39
2016-11-29T08:26:02.483Z,85.39
2016-11-29T08:27:02.462Z,85.43
2016-11-29T08:28:02.449Z,85.2
2016-11-29T08:29:02.732Z,85.3
2016-11-29T08:30:02.414Z,85.24
2016-11-29T08:31:02.394Z,85.53
2016-11-29T08:32:02.379Z,85.53
2016-11-29T08:33:02.362Z,85.43
2016-11-29T08:34:02.345Z,85.62
2016-11-29T08:35:02.335Z,85.24
2016-11-29T08:36:02.318Z,85.34
2016-11-29T08:37:02.300Z,84.86
2016-11-29T08:38:02.278Z,85.05
2016-11-29T08:39:02.264Z,84.96
2016-11-29T08:40:02.250Z,84.86
2016-11-29T08:41:02.239Z,84.86
2016-11-29T08:42:02.227Z,84.86
2016-11-29T08:43:02.208Z,84.68
2016-11-29T08:44:02.185Z,85.24
2016-11-29T08:45:02.175Z,84.49
2016-11-29T08:46:02.151Z,84.49
2016-11-29T08:47:02.142Z,84.49
2016-11-29T08:48:02.128Z,84.49
2016-11-29T08:49:02.108Z,85.05
2016-11-29T08:50:02.091Z,85.43
2016-11-29T08:51:02.070Z,85.34
2016-11-29T08:52:02.058Z,84.68
2016-11-29T08:53:02.345Z,84.3
2016-11-29T08:54:02.027Z,85.05
2016-11-29T08:55:02.007Z,84.58
2016-11-29T08:56:01.991Z,85.05
2016-11-29T08:57:01.976Z,84.68
2016-11-29T08:58:01.964Z,84.49
2016-11-29T08:59:01.948Z,84.77
2016-11-29T09:00:01.932Z,84.11
2016-11-29T09:01:01.912Z,84.2
2016-11-29T09:02:01.902Z,84.68
2016-11-29T09:03:01.884Z,84.01
2016-11-29T09:04:01.866Z,83.83
2016-11-29T09:05:01.849Z,84.25
2016-11-29T09:06:01.832Z,83.4
2016-11-29T09:07:01.819Z,83.4
2016-11-29T09:08:01.805Z,83.4
2016-11-29T09:09:01.787Z,83.3
2016-11-29T09:10:01.774Z,83.4
2016-11-29T09:11:01.754Z,83.11
2016-11-29T09:12:01.742Z,83.4
2016-11-29T09:13:01.738Z,82.83
2016-11-29T09:14:01.707Z,82.83
2016-11-29T09:15:01.694Z,82.92
2016-11-29T09:16:01.679Z,82.83
2016-11-29T09:17:01.665Z,82.83
2016-11-29T09:18:01.650Z,82.73
2016-11-29T09:19:01.634Z,82.83
2016-11-29T09:20:01.615Z,82.17
2016-11-29T09:21:01.599Z,82.07
2016-11-29T09:22:01.587Z,81.79
2016-11-29T09:23:01.576Z,82.07
2016-11-29T09:24:01.558Z,82.26
2016-11-29T09:25:01.537Z,82.17
2016-11-29T09:26:01.530Z,82.26
2016-11-29T09:27:01.516Z,81.98
2016-11-29T09:28:01.497Z,81.88
2016-11-29T09:29:01.485Z,81.7
2016-11-29T09:30:01.472Z,81.79
2016-11-29T09:31:01.450Z,82.17
2016-11-29T09:32:01.438Z,81.7
2016-11-29T09:33:01.419Z,81.51
2016-11-29T09:34:01.404Z,81.7
2016-11-29T09:35:01.691Z,81.6
2016-11-29T09:36:01.373Z,81.03
2016-11-29T09:37:01.363Z,81.32
2016-11-29T09:38:01.343Z,81.03
2016-11-29T09:39:01.329Z,81.13
2016-11-29T09:40:01.316Z,81.32
2016-11-29T09:41:01.298Z,81.22
2016-11-29T09:42:01.285Z,80.6
2016-11-29T09:43:01.270Z,80.51
2016-11-29T09:44:01.253Z,80.51
2016-11-29T09:45:01.246Z,80.32
2016-11-29T09:46:01.223Z,80.6
2016-11-29T09:47:01.211Z,80.84
2016-11-29T09:48:01.198Z,80.75
2016-11-29T09:49:01.180Z,80.41
2016-11-29T09:50:01.168Z,80.69
2016-11-29T09:51:01.151Z,80.13
2016-11-29T09:52:01.135Z,80.6
2016-11-29T09:53:01.122Z,80.32
2016-11-29T09:54:01.105Z,80.04
2016-11-29T09:55:01.093Z,79.94
2016-11-29T09:56:01.281Z,80.32
2016-11-29T09:57:01.060Z,80.32
2016-11-29T09:58:01.050Z,79.94
2016-11-29T09:59:01.034Z,79.94
2016-11-29T10:00:01.018Z,79.94
2016-11-29T10:01:01.306Z,80.04
2016-11-29T10:02:00.987Z,80.13
2016-11-29T10:03:00.974Z,79.85
2016-11-29T10:04:00.965Z,79.85
2016-11-29T10:05:00.942Z,79.75
2016-11-29T10:06:00.929Z,79.66
2016-11-29T10:07:00.923Z,79.37
2016-11-29T10:08:00.900Z,79.94
2016-11-29T10:09:00.888Z,79.66
2016-11-29T10:10:00.868Z,79.85
2016-11-29T10:11:00.857Z,79.28
2016-11-29T10:12:00.843Z,79.18
2016-11-29T10:13:00.824Z,79.37
2016-11-29T10:14:00.814Z,79.18
2016-11-29T10:15:00.797Z,79.09
2016-11-29T10:16:00.784Z,78.71
2016-11-29T10:17:00.769Z,79.09
2016-11-29T10:18:00.757Z,78.23
2016-11-29T10:19:00.739Z,78.9
2016-11-29T10:20:00.726Z,78.71
2016-11-29T10:21:00.712Z,78.99
2016-11-29T10:22:00.710Z,78.9
2016-11-29T10:23:00.687Z,78.99
2016-11-29T10:24:00.671Z,78.9
2016-11-29T10:25:00.654Z,78.9
2016-11-29T10:26:00.646Z,78.8
2016-11-29T10:27:00.624Z,79.18
2016-11-29T10:28:00.645Z,78.23
2016-11-29T10:29:00.598Z,78.14
2016-11-29T10:30:00.585Z,78.42
2016-11-29T10:31:00.569Z,78.8
2016-11-29T10:32:00.553Z,78.61
2016-11-29T10:33:00.542Z,78.99
2016-11-29T10:34:00.737Z,78.05
2016-11-29T10:35:00.516Z,78.23
2016-11-29T10:36:00.495Z,78.8
2016-11-29T10:37:00.482Z,78.94
2016-11-29T10:38:00.467Z,78.75
2016-11-29T10:39:00.462Z,78.56
2016-11-29T10:40:00.439Z,78.08
2016-11-29T10:41:00.428Z,78.27
2016-11-29T10:42:00.411Z,78.08
2016-11-29T10:43:00.400Z,77.8
2016-11-29T10:44:00.389Z,77.42
2016-11-29T10:45:00.373Z,77.42
2016-11-29T10:46:00.356Z,77.33
2016-11-29T10:47:00.347Z,77.33
2016-11-29T10:48:00.326Z,77.04
2016-11-29T10:49:00.313Z,76.76
2016-11-29T10:50:00.299Z,77.04
2016-11-29T10:51:00.285Z,76.67
2016-11-29T10:52:00.272Z,76.48
2016-11-29T10:53:00.260Z,76
2016-11-29T10:54:00.248Z,75.72
2016-11-29T10:55:00.433Z,75.81
2016-11-29T10:56:00.216Z,76
2016-11-29T10:57:00.203Z,76
2016-11-29T10:58:00.184Z,76.19
2016-11-29T10:59:00.174Z,75.24
2016-11-29T11:00:00.161Z,75.05
2016-11-29T11:01:00.147Z,74.58
2016-11-29T11:02:00.134Z,74.02
2016-11-29T11:03:00.118Z,74.68
2016-11-29T11:04:00.109Z,73.92
2016-11-29T11:05:00.096Z,74.4
2016-11-29T11:06:00.078Z,74.02
2016-11-29T11:07:00.067Z,74.15
2016-11-29T11:08:00.056Z,73.96
2016-11-29T11:09:00.036Z,73.77
2016-11-29T11:10:00.024Z,72.92
2016-11-29T11:11:00.010Z,73.11
2016-11-29T11:11:59.997Z,73.2
2016-11-29T11:12:59.982Z,72.82
2016-11-29T11:13:59.964Z,73.11
2016-11-29T11:14:59.953Z,72.92
2016-11-29T11:15:59.942Z,72.82
2016-11-29T11:16:59.932Z,73.11
2016-11-29T11:17:59.915Z,73.49
2016-11-29T11:18:59.899Z,73.49
2016-11-29T11:19:59.889Z,73.01
2016-11-29T11:20:59.871Z,73.11
2016-11-29T11:21:59.857Z,72.92
2016-11-29T11:22:59.848Z,72.63
2016-11-29T11:23:59.831Z,73.01
2016-11-29T11:24:59.820Z,72.16
2016-11-29T11:25:59.803Z,72.34
2016-11-29T11:26:59.790Z,72.06
2016-11-29T11:27:59.777Z,72.06
2016-11-29T11:28:59.766Z,71.31
2016-11-29T11:29:59.780Z,70.83
2016-11-29T11:30:59.738Z,70.45
2016-11-29T11:31:59.727Z,70.26
2016-11-29T11:32:59.716Z,70.64
2016-11-29T11:33:59.703Z,70.74
2016-11-29T11:34:59.686Z,70.64
2016-11-29T11:35:59.669Z,69.89
2016-11-29T11:36:59.657Z,70.36
2016-11-29T11:37:59.647Z,70.07
2016-11-29T11:38:59.636Z,69.6
2016-11-29T11:39:59.621Z,69.79
2016-11-29T11:40:59.604Z,69.79
2016-11-29T11:41:59.595Z,69.22
2016-11-29T11:42:59.577Z,69.32
2016-11-29T11:43:59.571Z,69.41
2016-11-29T11:44:59.552Z,68.56
2016-11-29T11:45:59.744Z,68.84
2016-11-29T11:46:59.526Z,68.84
2016-11-29T11:47:59.511Z,68.27
2016-11-29T11:48:59.499Z,68.46
2016-11-29T11:49:59.484Z,67.99
2016-11-29T11:50:59.469Z,68.37
2016-11-29T11:51:59.458Z,68.46
2016-11-29T11:52:59.450Z,68.56
2016-11-29T11:53:59.432Z,67.9
2016-11-29T11:54:59.419Z,67.43
2016-11-29T11:55:59.408Z,67.61
2016-11-29T11:56:59.395Z,68.08
2016-11-29T11:57:59.383Z,67.99
2016-11-29T11:58:59.372Z,67.61
2016-11-29T11:59:59.362Z,67.71
2016-11-29T12:00:59.340Z,67.71
2016-11-29T12:01:59.329Z,66.99
2016-11-29T12:02:59.323Z,66.99
2016-11-29T12:03:59.301Z,66.76
2016-11-29T12:04:59.291Z,66.99
2016-11-29T12:05:59.277Z,66.76
2016-11-29T12:06:59.264Z,67.24
2016-11-29T12:07:59.249Z,67.36
2016-11-29T12:08:59.237Z,66.76
2016-11-29T12:09:59.227Z,66.28
2016-11-29T12:10:59.214Z,66.28
2016-11-29T12:11:59.198Z,66.28
2016-11-29T12:12:59.189Z,66.22
2016-11-29T12:13:59.172Z,65.75
2016-11-29T12:14:59.465Z,65.19
2016-11-29T12:15:59.144Z,64.71
2016-11-29T12:16:59.136Z,65.09
2016-11-29T12:17:59.119Z,65.09
2016-11-29T12:18:59.133Z,64.61
2016-11-29T12:19:59.095Z,64.52
2016-11-29T12:20:59.081Z,64.49
2016-11-29T12:21:59.068Z,64.39
2016-11-29T12:22:59.051Z,64.77
2016-11-29T12:23:59.042Z,64.49
2016-11-29T12:24:59.027Z,64.3
2016-11-29T12:25:59.016Z,64.14
2016-11-29T12:26:59.003Z,64.52
2016-11-29T12:27:58.992Z,64.39
2016-11-29T12:28:58.979Z,63.82
2016-11-29T12:29:58.964Z,63.82
2016-11-29T12:30:58.977Z,62.97
2016-11-29T12:31:58.940Z,62.69
2016-11-29T12:32:58.924Z,62.69
2016-11-29T12:33:58.910Z,62.59
2016-11-29T12:34:58.900Z,62.69
2016-11-29T12:35:58.883Z,62.59
2016-11-29T12:36:58.876Z,63.07
2016-11-29T12:37:58.861Z,63.07
2016-11-29T12:38:58.843Z,63.26
2016-11-29T12:39:58.835Z,63.92
2016-11-29T12:40:58.818Z,63.54
2016-11-29T12:41:58.808Z,63.64
2016-11-29T12:42:58.791Z,63.64
2016-11-29T12:43:58.782Z,64.01
2016-11-29T12:44:58.767Z,64.49
2016-11-29T12:45:58.756Z,64.49
2016-11-29T12:46:58.746Z,64.39
2016-11-29T12:47:58.729Z,64.39
2016-11-29T12:48:58.715Z,64.39
2016-11-29T12:49:58.702Z,64.49
2016-11-29T12:50:58.692Z,64.39
2016-11-29T12:51:58.674Z,64.39
2016-11-29T12:52:58.663Z,64.39
2016-11-29T12:53:58.952Z,64.2
2016-11-29T12:54:58.640Z,64.58